createdAt,value
2018-05-11T00:00:14.568Z,86.10
2018-05-11T00:02:07.483Z,86.30
2018-05-11T00:03:07.485Z,85.72
2018-05-11T00:05:00.408Z,86.10
2018-05-11T00:06:00.409Z,85.91
2018-05-11T00:07:53.337Z,86.49
2018-05-11T00:08:53.338Z,86.20
2018-05-11T00:10:46.241Z,86.30
2018-05-11T00:11:46.261Z,86.49
2018-05-11T00:13:39.183Z,86.25
2018-05-11T00:14:39.186Z,86.54
2018-05-11T00:16:32.091Z,87.02
2018-05-11T00:17:32.114Z,87.21
2018-05-11T00:19:25.029Z,87.78
2018-05-11T00:20:25.033Z,87.68
2018-05-11T00:22:17.928Z,87.78
2018-05-11T00:23:17.952Z,87.40
2018-05-11T00:25:10.928Z,87.68
2018-05-11T00:26:10.874Z,87.78
2018-05-11T00:28:03.794Z,87.78
2018-05-11T00:29:03.796Z,87.49
2018-05-11T00:30:56.698Z,87.11
2018-05-11T00:31:56.716Z,87.30
2018-05-11T00:33:49.633Z,86.44
2018-05-11T00:34:49.636Z,86.82
2018-05-11T00:36:42.538Z,86.44
2018-05-11T00:37:42.559Z,86.82
2018-05-11T00:39:35.476Z,86.54
2018-05-11T00:40:35.559Z,86.63
2018-05-11T00:42:28.384Z,86.73
2018-05-11T00:43:28.401Z,86.63
2018-05-11T00:45:21.327Z,86.63
2018-05-11T00:46:21.329Z,86.63
2018-05-11T00:48:14.250Z,86.73
2018-05-11T00:49:14.251Z,86.25
2018-05-11T00:51:07.172Z,86.54
2018-05-11T00:52:07.171Z,86.54
2018-05-11T00:54:00.094Z,86.40
2018-05-11T00:55:00.097Z,86.54
2018-05-11T00:56:53.010Z,86.98
2018-05-11T00:57:53.016Z,87.64
2018-05-11T00:59:45.933Z,87.93
2018-05-11T01:00:45.934Z,87.74
2018-05-11T01:02:38.840Z,87.45
2018-05-11T01:03:38.859Z,87.83
2018-05-11T01:05:31.781Z,87.93
2018-05-11T01:06:31.779Z,88.12
2018-05-11T01:08:24.700Z,88.50
2018-05-11T01:09:24.698Z,88.40
2018-05-11T01:11:17.598Z,87.64
2018-05-11T01:12:17.619Z,87.83
2018-05-11T01:14:10.538Z,87.74
2018-05-11T01:15:10.540Z,87.74
2018-05-11T01:17:03.556Z,87.74
2018-05-11T01:18:03.460Z,87.54
2018-05-11T01:19:56.381Z,87.74
2018-05-11T01:20:56.384Z,87.74
2018-05-11T01:22:49.286Z,87.54
2018-05-11T01:23:49.307Z,87.54
2018-05-11T01:25:42.224Z,87.83
2018-05-11T01:26:42.233Z,87.83
2018-05-11T01:28:35.144Z,87.64
2018-05-11T01:29:35.145Z,87.35
2018-05-11T01:31:28.044Z,87.93
2018-05-11T01:32:28.067Z,87.16
2018-05-11T01:34:21.002Z,87.98
2018-05-11T01:35:20.985Z,87.21
2018-05-11T01:37:13.884Z,87.21
2018-05-11T01:38:13.905Z,87.31
2018-05-11T01:40:06.822Z,87.12
2018-05-11T01:41:06.822Z,87.79
2018-05-11T01:42:59.725Z,87.88
2018-05-11T01:43:59.745Z,87.50
2018-05-11T01:45:52.660Z,87.60
2018-05-11T01:46:52.663Z,87.69
2018-05-11T01:48:45.658Z,87.60
2018-05-11T01:49:45.584Z,87.69
2018-05-11T01:51:38.485Z,87.88
2018-05-11T01:52:38.505Z,87.79
2018-05-11T01:54:31.423Z,87.50
2018-05-11T01:55:31.424Z,87.50
2018-05-11T01:57:24.322Z,87.79
2018-05-11T01:58:24.344Z,87.50
2018-05-11T02:00:17.264Z,87.50
2018-05-11T02:01:17.265Z,87.60
2018-05-11T02:03:10.162Z,87.31
2018-05-11T02:04:10.183Z,87.12
2018-05-11T02:06:03.103Z,87.21
2018-05-11T02:07:03.109Z,86.83
2018-05-11T02:08:56.022Z,86.74
2018-05-11T02:09:56.023Z,86.83
2018-05-11T02:11:48.922Z,86.74
2018-05-11T02:12:48.942Z,86.74
2018-05-11T02:14:41.858Z,86.93
2018-05-11T02:15:41.858Z,86.93
2018-05-11T02:17:34.759Z,87.12
2018-05-11T02:18:34.794Z,87.02
2018-05-11T02:20:27.698Z,86.93
2018-05-11T02:21:27.698Z,87.21
2018-05-11T02:23:20.599Z,86.60
2018-05-11T02:24:20.617Z,86.98
2018-05-11T02:26:13.540Z,87.74
2018-05-11T02:27:13.535Z,87.74
2018-05-11T02:29:06.455Z,88.03
2018-05-11T02:30:06.456Z,87.27
2018-05-11T02:31:59.357Z,87.84
2018-05-11T02:32:59.374Z,87.74
2018-05-11T02:34:52.299Z,88.03
2018-05-11T02:35:52.295Z,87.74
2018-05-11T02:37:45.194Z,88.03
2018-05-11T02:38:45.216Z,87.93
2018-05-11T02:40:38.135Z,87.65
2018-05-11T02:41:38.133Z,87.65
2018-05-11T02:43:31.031Z,87.55
2018-05-11T02:44:31.049Z,87.84
2018-05-11T02:46:23.974Z,87.46
2018-05-11T02:47:23.973Z,87.84
2018-05-11T02:49:16.890Z,87.84
2018-05-11T02:50:16.891Z,88.22
2018-05-11T02:52:09.792Z,87.84
2018-05-11T02:53:09.809Z,88.12
2018-05-11T02:55:02.730Z,87.46
2018-05-11T02:56:02.734Z,88.31
2018-05-11T02:57:55.633Z,88.12
2018-05-11T02:58:55.650Z,88.12
2018-05-11T03:00:48.567Z,88.22
2018-05-11T03:01:48.566Z,87.55
2018-05-11T03:03:41.472Z,88.41
2018-05-11T03:04:41.487Z,88.41
2018-05-11T03:06:34.403Z,87.65
2018-05-11T03:07:34.405Z,88.22
2018-05-11T03:09:27.322Z,88.03
2018-05-11T03:10:27.371Z,88.03
2018-05-11T03:12:20.223Z,87.93
2018-05-11T03:13:20.242Z,88.31
2018-05-11T03:15:13.158Z,88.12
2018-05-11T03:16:13.160Z,88.70
2018-05-11T03:18:06.063Z,88.46
2018-05-11T03:19:06.075Z,88.51
2018-05-11T03:20:58.997Z,88.79
2018-05-11T03:21:59.000Z,88.56
2018-05-11T03:23:51.897Z,88.27
2018-05-11T03:24:51.918Z,88.27
2018-05-11T03:26:44.836Z,88.60
2018-05-11T03:27:44.838Z,88.65
2018-05-11T03:29:37.755Z,88.46
2018-05-11T03:30:37.758Z,89.13
2018-05-11T03:32:30.664Z,89.61
2018-05-11T03:33:30.674Z,90.27
2018-05-11T03:35:23.598Z,90.50
2018-05-11T03:36:23.594Z,90.36
2018-05-11T03:38:16.497Z,90.46
2018-05-11T03:39:16.516Z,90.27
2018-05-11T03:41:09.430Z,90.70
2018-05-11T03:42:09.431Z,90.98
2018-05-11T03:44:02.337Z,91.74
2018-05-11T03:45:02.352Z,92.08
2018-05-11T03:46:55.273Z,91.84
2018-05-11T03:47:55.275Z,92.13
2018-05-11T03:49:48.193Z,91.74
2018-05-11T03:50:48.193Z,91.74
2018-05-11T03:52:41.097Z,91.84
2018-05-11T03:53:41.115Z,91.94
2018-05-11T03:55:34.032Z,92.60
2018-05-11T03:56:34.035Z,92.79
2018-05-11T03:58:26.934Z,92.41
2018-05-11T03:59:26.951Z,92.32
2018-05-11T04:01:19.877Z,92.22
2018-05-11T04:02:19.879Z,92.03
2018-05-11T04:04:12.782Z,92.41
2018-05-11T04:05:12.800Z,92.50
2018-05-11T04:07:05.720Z,92.60
2018-05-11T04:08:05.744Z,92.98
2018-05-11T04:09:58.637Z,92.55
2018-05-11T04:10:58.638Z,92.46
2018-05-11T04:12:51.543Z,92.46
2018-05-11T04:13:51.558Z,91.98
2018-05-11T04:15:44.476Z,91.60
2018-05-11T04:16:44.477Z,91.98
2018-05-11T04:18:37.376Z,91.50
2018-05-11T04:19:37.399Z,91.50
2018-05-11T04:21:30.321Z,91.31
2018-05-11T04:22:30.319Z,91.03
2018-05-11T04:24:23.219Z,90.98
2018-05-11T04:25:23.238Z,90.98
2018-05-11T04:27:16.158Z,90.59
2018-05-11T04:28:16.161Z,89.54
2018-05-11T04:30:09.148Z,89.64
2018-05-11T04:31:09.085Z,89.45
2018-05-11T04:33:01.981Z,89.64
2018-05-11T04:34:02.000Z,90.22
2018-05-11T04:35:54.920Z,89.83
2018-05-11T04:36:54.921Z,90.59
2018-05-11T04:38:47.822Z,89.93
2018-05-11T04:39:47.844Z,89.83
2018-05-11T04:41:40.766Z,89.17
2018-05-11T04:42:40.767Z,89.26
2018-05-11T04:44:33.669Z,88.78
2018-05-11T04:45:33.688Z,88.69
2018-05-11T04:47:26.608Z,88.50
2018-05-11T04:48:26.608Z,88.98
2018-05-11T04:50:19.528Z,89.54
2018-05-11T04:51:19.530Z,89.26
2018-05-11T04:53:12.427Z,89.74
2018-05-11T04:54:12.448Z,89.83
2018-05-11T04:56:05.366Z,89.64
2018-05-11T04:57:05.367Z,89.45
2018-05-11T04:58:58.268Z,89.36
2018-05-11T04:59:58.286Z,89.17
2018-05-11T05:01:51.205Z,89.83
2018-05-11T05:02:51.209Z,89.64
2018-05-11T05:04:44.109Z,90.12
2018-05-11T05:05:44.129Z,90.22
2018-05-11T05:07:37.048Z,89.83
2018-05-11T05:08:37.050Z,90.12
2018-05-11T05:10:29.969Z,89.74
2018-05-11T05:11:29.970Z,89.88
2018-05-11T05:13:22.873Z,89.40
2018-05-11T05:14:22.895Z,89.40
2018-05-11T05:16:15.814Z,88.64
2018-05-11T05:17:15.813Z,88.16
2018-05-11T05:19:08.731Z,88.54
2018-05-11T05:20:08.791Z,88.21
2018-05-11T05:22:01.661Z,88.54
2018-05-11T05:23:01.661Z,88.45
2018-05-11T05:24:54.566Z,88.45
2018-05-11T05:25:54.586Z,89.31
2018-05-11T05:27:47.508Z,88.73
2018-05-11T05:28:47.511Z,88.54
2018-05-11T05:30:40.435Z,89.12
2018-05-11T05:31:40.435Z,87.87
2018-05-11T05:33:33.340Z,87.92
2018-05-11T05:34:33.360Z,86.68
2018-05-11T05:36:26.287Z,86.77
2018-05-11T05:37:26.287Z,86.20
2018-05-11T05:39:19.197Z,86.87
2018-05-11T05:40:19.216Z,86.96
2018-05-11T05:42:12.136Z,88.01
2018-05-11T05:43:12.138Z,87.54
2018-05-11T05:45:05.050Z,87.82
2018-05-11T05:46:05.071Z,88.11
2018-05-11T05:47:57.993Z,87.92
2018-05-11T05:48:57.996Z,87.73
2018-05-11T05:50:50.917Z,87.82
2018-05-11T05:51:50.920Z,88.20
2018-05-11T05:53:43.831Z,87.35
2018-05-11T05:54:43.848Z,86.77
2018-05-11T05:56:36.780Z,87.15
2018-05-11T05:57:36.780Z,86.58
2018-05-11T05:59:29.691Z,87.15
2018-05-11T06:00:29.709Z,86.96
2018-05-11T06:02:22.640Z,88.01
2018-05-11T06:03:22.635Z,87.96
2018-05-11T06:05:15.542Z,87.96
2018-05-11T06:06:15.561Z,87.87
2018-05-11T06:08:08.509Z,87.87
2018-05-11T06:09:08.486Z,87.20
2018-05-11T06:11:01.411Z,87.29
2018-05-11T06:12:01.417Z,87.10
2018-05-11T06:13:54.319Z,86.82
2018-05-11T06:14:54.341Z,86.29
2018-05-11T06:16:47.266Z,85.52
2018-05-11T06:17:47.274Z,85.52
2018-05-11T06:19:40.205Z,86.00
2018-05-11T06:20:40.207Z,85.52
2018-05-11T06:22:33.128Z,84.89
2018-05-11T06:23:33.131Z,84.80
2018-05-11T06:25:26.037Z,84.52
2018-05-11T06:26:26.058Z,84.89
2018-05-11T06:28:18.988Z,84.17
2018-05-11T06:29:18.986Z,83.31
2018-05-11T06:31:11.916Z,82.64
2018-05-11T06:32:11.920Z,82.74
2018-05-11T06:34:04.828Z,82.40
2018-05-11T06:35:04.852Z,82.11
2018-05-11T06:36:57.780Z,81.20
2018-05-11T06:37:57.784Z,80.62
2018-05-11T06:39:50.696Z,78.27
2018-05-11T06:40:50.720Z,77.50
2018-05-11T06:42:43.655Z,76.57
2018-05-11T06:43:43.662Z,75.56
2018-05-11T06:45:36.572Z,73.58
2018-05-11T06:46:36.602Z,70.84
2018-05-11T06:48:29.540Z,69.81
2018-05-11T06:49:29.543Z,67.41
2018-05-11T06:51:22.488Z,66.20
2018-05-11T06:52:22.493Z,65.81
2018-05-11T06:54:15.411Z,62.16
2018-05-11T06:55:15.439Z,62.07
2018-05-11T06:57:08.378Z,62.35
2018-05-11T06:58:08.386Z,62.74
2018-05-11T07:00:01.307Z,63.15
2018-05-11T07:01:01.334Z,63.54
2018-05-11T07:02:54.276Z,59.82
2018-05-11T07:03:54.296Z,59.89
2018-05-11T07:05:47.206Z,60.69
2018-05-11T07:06:47.238Z,62.03
2018-05-11T07:08:40.176Z,60.72
2018-05-11T07:09:40.186Z,60.39
2018-05-11T07:11:33.131Z,59.31
2018-05-11T07:12:33.138Z,60.17
2018-05-11T07:14:26.063Z,62.19
2018-05-11T07:15:26.089Z,61.78
2018-05-11T07:17:19.035Z,62.04
2018-05-11T07:18:19.043Z,63.09
2018-05-11T07:20:11.961Z,63.96
2018-05-11T07:21:11.989Z,65.08
2018-05-11T07:23:04.927Z,65.84
2018-05-11T07:24:04.935Z,65.17
2018-05-11T07:25:57.851Z,65.43
2018-05-11T07:26:57.941Z,66.67
2018-05-11T07:28:50.815Z,66.83
2018-05-11T07:29:50.827Z,67.50
2018-05-11T07:31:43.757Z,67.76
2018-05-11T07:32:43.767Z,68.24
2018-05-11T07:34:36.681Z,69.96
2018-05-11T07:35:36.709Z,70.35
2018-05-11T07:37:29.648Z,69.01
2018-05-11T07:38:29.652Z,69.10
2018-05-11T07:40:22.567Z,69.48
2018-05-11T07:41:22.592Z,70.21
2018-05-11T07:43:15.572Z,68.97
2018-05-11T07:44:15.530Z,70.03
2018-05-11T07:46:08.445Z,69.07
2018-05-11T07:47:08.469Z,68.40
2018-05-11T07:49:01.402Z,68.24
2018-05-11T07:50:01.411Z,68.33
2018-05-11T07:51:54.341Z,67.76
2018-05-11T07:52:54.349Z,68.33
2018-05-11T07:54:47.261Z,68.14
2018-05-11T07:55:47.288Z,69.10
2018-05-11T07:57:40.220Z,68.43
2018-05-11T07:58:40.231Z,69.29
2018-05-11T08:00:33.136Z,68.18
2018-05-11T08:01:33.164Z,66.45
2018-05-11T08:03:26.094Z,66.32
2018-05-11T08:04:26.100Z,68.05
2018-05-11T08:06:19.015Z,68.56
2018-05-11T08:07:19.044Z,68.18
2018-05-11T08:09:11.971Z,68.08
2018-05-11T08:10:11.975Z,67.89
2018-05-11T08:12:04.909Z,67.79
2018-05-11T08:13:04.914Z,68.37
2018-05-11T08:14:57.833Z,68.24
2018-05-11T08:15:57.859Z,67.95
2018-05-11T08:17:50.794Z,69.20
2018-05-11T08:18:50.801Z,69.01
2018-05-11T08:20:43.709Z,69.29
2018-05-11T08:21:43.734Z,70.15
2018-05-11T08:23:36.670Z,70.25
2018-05-11T08:24:36.672Z,70.35
2018-05-11T08:26:29.588Z,70.96
2018-05-11T08:27:29.612Z,70.76
2018-05-11T08:29:22.541Z,68.98
2018-05-11T08:30:22.548Z,68.88
2018-05-11T08:32:15.481Z,66.90
2018-05-11T08:33:15.488Z,66.33
2018-05-11T08:35:08.407Z,66.46
2018-05-11T08:36:08.433Z,66.93
2018-05-11T08:38:01.380Z,65.81
2018-05-11T08:39:01.379Z,66.68
2018-05-11T08:40:54.292Z,65.27
2018-05-11T08:41:54.325Z,63.73
2018-05-11T08:43:47.253Z,62.10
2018-05-11T08:44:47.265Z,60.66
2018-05-11T08:46:40.180Z,62.00
2018-05-11T08:47:40.208Z,61.23
2018-05-11T08:49:33.141Z,59.41
2018-05-11T08:50:33.171Z,59.47
2018-05-11T08:52:26.084Z,61.17
2018-05-11T08:53:26.093Z,60.11
2018-05-11T08:55:19.013Z,64.15
2018-05-11T08:56:19.043Z,65.43
2018-05-11T08:58:11.972Z,62.16
2018-05-11T08:59:11.983Z,63.22
2018-05-11T09:01:04.909Z,62.87
2018-05-11T09:02:04.926Z,63.45
2018-05-11T09:03:57.869Z,62.19
2018-05-11T09:04:57.880Z,59.99
2018-05-11T09:06:50.791Z,60.17
2018-05-11T09:07:50.822Z,60.08
2018-05-11T09:09:43.755Z,59.60
2018-05-11T09:10:43.762Z,59.50
2018-05-11T09:12:36.692Z,61.20
2018-05-11T09:13:36.698Z,61.87
2018-05-11T09:15:29.622Z,63.32
2018-05-11T09:16:29.668Z,62.84
2018-05-11T09:18:22.581Z,62.07
2018-05-11T09:19:22.591Z,62.16
2018-05-11T09:21:15.512Z,61.78
2018-05-11T09:22:15.529Z,61.58
2018-05-11T09:24:08.464Z,61.71
2018-05-11T09:25:08.476Z,60.56
2018-05-11T09:27:01.395Z,58.54
2018-05-11T09:28:01.420Z,60.17
2018-05-11T09:29:54.357Z,62.38
2018-05-11T09:30:54.356Z,61.65
2018-05-11T09:32:47.289Z,59.60
2018-05-11T09:33:47.298Z,59.50
2018-05-11T09:35:40.215Z,60.27
2018-05-11T09:36:40.244Z,60.85
2018-05-11T09:38:33.173Z,61.23
2018-05-11T09:39:33.332Z,61.04
2018-05-11T09:41:26.106Z,62.13
2018-05-11T09:42:26.131Z,62.32
2018-05-11T09:44:19.062Z,60.49
2018-05-11T09:45:19.076Z,58.37
2018-05-11T09:47:11.986Z,60.78
2018-05-11T09:48:12.016Z,60.78
2018-05-11T09:50:04.947Z,60.11
2018-05-11T09:51:04.960Z,59.44
2018-05-11T09:52:57.894Z,58.37
2018-05-11T09:53:57.898Z,58.09
2018-05-11T09:55:50.831Z,58.18
2018-05-11T09:56:50.836Z,58.28
2018-05-11T09:58:43.776Z,59.44
2018-05-11T09:59:43.784Z,59.63
2018-05-11T10:01:36.757Z,60.04
2018-05-11T10:02:36.731Z,60.81
2018-05-11T10:04:29.657Z,60.04
2018-05-11T10:05:29.663Z,60.42
2018-05-11T10:07:22.732Z,60.27
2018-05-11T10:08:22.832Z,58.05
2018-05-11T10:10:15.722Z,57.95
2018-05-11T10:11:15.751Z,58.05
2018-05-11T10:13:08.664Z,56.32
2018-05-11T10:14:08.677Z,58.24
2018-05-11T10:16:01.634Z,59.20
2018-05-11T10:17:01.638Z,59.49
2018-05-11T10:18:54.568Z,58.75
2018-05-11T10:19:54.576Z,56.54
2018-05-11T10:21:47.516Z,56.82
2018-05-11T10:22:47.524Z,57.98
2018-05-11T10:24:40.460Z,58.20
2018-05-11T10:25:40.467Z,55.89
2018-05-11T10:27:33.382Z,55.60
2018-05-11T10:28:33.415Z,56.27
2018-05-11T10:30:26.345Z,55.09
2018-05-11T10:31:26.352Z,55.96
2018-05-11T10:33:19.286Z,54.25
2018-05-11T10:34:19.303Z,54.71
2018-05-11T10:36:12.214Z,56.44
2018-05-11T10:37:12.242Z,57.34
2018-05-11T10:39:05.171Z,53.07
2018-05-11T10:40:05.183Z,52.69
2018-05-11T10:41:58.101Z,56.15
2018-05-11T10:42:58.158Z,56.15
2018-05-11T10:44:51.065Z,55.09
2018-05-11T10:45:51.072Z,55.57
2018-05-11T10:47:43.986Z,53.62
2018-05-11T10:48:44.031Z,52.95
2018-05-11T10:50:36.956Z,54.56
2018-05-11T10:51:36.967Z,54.75
2018-05-11T10:53:29.906Z,54.75
2018-05-11T10:54:29.915Z,53.88
2018-05-11T10:56:22.827Z,56.43
2018-05-11T10:57:22.860Z,57.00
2018-05-11T10:59:15.785Z,56.30
2018-05-11T11:00:15.798Z,56.52
2018-05-11T11:02:08.708Z,57.65
2018-05-11T11:03:08.741Z,58.06
2018-05-11T11:05:01.693Z,59.31
2018-05-11T11:06:01.718Z,57.29
2018-05-11T11:07:54.628Z,59.53
2018-05-11T11:08:54.656Z,57.03
2018-05-11T11:10:47.589Z,55.01
2018-05-11T11:11:47.603Z,54.75
2018-05-11T11:13:40.560Z,54.27
2018-05-11T11:14:40.538Z,55.33
2018-05-11T11:16:33.448Z,53.50
2018-05-11T11:17:33.479Z,53.69
2018-05-11T11:19:26.409Z,54.94
2018-05-11T11:20:26.420Z,55.07
2018-05-11T11:22:19.331Z,55.19
2018-05-11T11:23:19.357Z,54.90
2018-05-11T11:25:12.295Z,50.11
2018-05-11T11:26:12.304Z,50.88
2018-05-11T11:28:05.222Z,50.13
2018-05-11T11:29:05.250Z,50.71
2018-05-11T11:30:58.185Z,50.54
2018-05-11T11:31:58.197Z,49.96
2018-05-11T11:33:51.129Z,46.97
2018-05-11T11:34:51.141Z,48.49
2018-05-11T11:36:44.061Z,48.97
2018-05-11T11:37:44.088Z,47.82
2018-05-11T11:39:37.019Z,49.58
2018-05-11T11:40:37.033Z,49.19
2018-05-11T11:42:29.958Z,50.35
2018-05-11T11:43:29.978Z,49.51
2018-05-11T11:45:22.915Z,45.45
2018-05-11T11:46:22.922Z,45.24
2018-05-11T11:48:15.838Z,45.04
2018-05-11T11:49:15.870Z,45.79
2018-05-11T11:51:08.806Z,47.05
2018-05-11T11:52:08.821Z,46.47
2018-05-11T11:54:01.754Z,46.56
2018-05-11T11:55:01.762Z,46.25
2018-05-11T11:56:54.679Z,47.60
2018-05-11T11:57:54.712Z,47.31
2018-05-11T11:59:47.642Z,48.57
2018-05-11T12:00:47.654Z,49.34
2018-05-11T12:02:40.565Z,46.93
2018-05-11T12:03:40.592Z,47.41
2018-05-11T12:05:33.534Z,49.99
2018-05-11T12:06:33.540Z,48.54
2018-05-11T12:08:26.456Z,47.87
2018-05-11T12:09:26.485Z,47.67
2018-05-11T12:11:19.413Z,48.54
2018-05-11T12:12:19.421Z,49.00
2018-05-11T12:14:12.357Z,49.29
2018-05-11T12:15:12.368Z,50.04
2018-05-11T12:17:05.277Z,50.61
2018-05-11T12:18:05.308Z,52.06
2018-05-11T12:19:58.238Z,50.35
2018-05-11T12:20:58.254Z,52.08
2018-05-11T12:22:52.157Z,51.79
2018-05-11T12:23:52.182Z,52.20
2018-05-11T12:25:45.114Z,53.45
2018-05-11T12:26:45.127Z,49.51
2018-05-11T12:28:38.039Z,50.01
2018-05-11T12:29:38.060Z,51.26
2018-05-11T12:31:30.996Z,51.17
2018-05-11T12:32:31.009Z,49.24
2018-05-11T12:34:23.942Z,48.40
2018-05-11T12:35:23.945Z,46.95
2018-05-11T12:37:16.864Z,48.59
2018-05-11T12:38:16.889Z,49.94
2018-05-11T12:40:09.822Z,49.37
2018-05-11T12:41:09.847Z,47.24
2018-05-11T12:43:02.750Z,45.58
2018-05-11T12:44:02.775Z,46.35
2018-05-11T12:45:55.711Z,46.14
2018-05-11T12:46:55.730Z,46.91
2018-05-11T12:48:48.630Z,48.16
2018-05-11T12:49:48.658Z,48.35
2018-05-11T12:51:41.597Z,47.29
2018-05-11T12:52:41.603Z,48.25
2018-05-11T12:54:34.532Z,47.75
2018-05-11T12:55:34.544Z,47.75
2018-05-11T12:57:27.458Z,47.65
2018-05-11T12:58:27.485Z,48.43
2018-05-11T13:00:20.415Z,48.33
2018-05-11T13:01:20.422Z,46.78
2018-05-11T13:03:13.378Z,47.58
2018-05-11T13:04:13.403Z,47.29
2018-05-11T13:06:06.340Z,45.65
2018-05-11T13:07:06.424Z,45.46
2018-05-11T13:08:59.345Z,46.91
2018-05-11T13:09:59.292Z,49.05
2018-05-11T13:11:52.245Z,46.93
2018-05-11T13:12:52.248Z,47.12
2018-05-11T13:14:45.197Z,44.54
2018-05-11T13:15:45.287Z,44.64
2018-05-11T13:17:39.175Z,44.76
2018-05-11T13:18:39.191Z,44.85
2018-05-11T13:20:32.177Z,42.83
2018-05-11T13:21:32.141Z,42.83
2018-05-11T13:23:25.055Z,44.18
2018-05-11T13:24:25.084Z,44.56
2018-05-11T13:26:18.016Z,43.02
2018-05-11T13:27:18.029Z,42.15
2018-05-11T13:29:10.943Z,43.02
2018-05-11T13:30:10.969Z,44.46
2018-05-11T13:32:03.904Z,41.96
2018-05-11T13:33:03.921Z,41.96
2018-05-11T13:34:56.859Z,41.57
2018-05-11T13:35:56.863Z,41.09
2018-05-11T13:37:49.783Z,40.51
2018-05-11T13:38:49.810Z,41.67
2018-05-11T13:40:42.742Z,41.48
2018-05-11T13:41:42.756Z,41.96
2018-05-11T13:43:35.671Z,42.35
2018-05-11T13:44:35.701Z,42.25
2018-05-11T13:46:28.646Z,42.44
2018-05-11T13:47:28.640Z,43.21
2018-05-11T13:49:21.552Z,42.83
2018-05-11T13:50:21.585Z,41.38
2018-05-11T13:52:14.513Z,41.55
2018-05-11T13:53:14.526Z,43.00
2018-05-11T13:55:07.455Z,41.84
2018-05-11T13:56:07.479Z,41.94
2018-05-11T13:58:00.377Z,42.90
2018-05-11T13:59:00.406Z,42.42
2018-05-11T14:00:53.341Z,43.87
2018-05-11T14:01:53.353Z,42.61
2018-05-11T14:03:46.265Z,42.61
2018-05-11T14:04:46.292Z,43.67
2018-05-11T14:06:39.226Z,43.10
2018-05-11T14:07:39.238Z,42.42
2018-05-11T14:09:32.149Z,41.65
2018-05-11T14:10:32.178Z,41.57
2018-05-11T14:12:25.115Z,41.77
2018-05-11T14:13:25.125Z,41.48
2018-05-11T14:15:18.055Z,41.77
2018-05-11T14:16:18.060Z,42.18
2018-05-11T14:18:10.976Z,40.24
2018-05-11T14:19:11.008Z,40.24
2018-05-11T14:21:03.941Z,38.99
2018-05-11T14:22:03.952Z,38.87
2018-05-11T14:23:56.876Z,39.57
2018-05-11T14:24:56.949Z,39.37
2018-05-11T14:26:49.832Z,40.03
2018-05-11T14:27:49.846Z,40.59
2018-05-11T14:29:42.761Z,42.13
2018-05-11T14:30:42.789Z,42.05
2018-05-11T14:32:36.719Z,42.05
2018-05-11T14:33:36.728Z,41.86
2018-05-11T14:35:29.666Z,42.66
2018-05-11T14:36:29.677Z,41.30
2018-05-11T14:38:22.587Z,39.09
2018-05-11T14:39:22.718Z,39.47
2018-05-11T14:41:15.550Z,38.21
2018-05-11T14:42:15.558Z,38.41
2018-05-11T14:44:08.476Z,37.93
2018-05-11T14:45:08.507Z,38.89
2018-05-11T14:47:01.442Z,39.29
2018-05-11T14:48:01.449Z,37.95
2018-05-11T14:49:54.371Z,36.96
2018-05-11T14:50:54.397Z,37.54
2018-05-11T14:52:47.331Z,37.06
2018-05-11T14:53:47.341Z,37.35
2018-05-11T14:55:40.290Z,38.70
2018-05-11T14:56:40.290Z,40.82
2018-05-11T14:58:33.216Z,38.14
2018-05-11T14:59:33.236Z,37.83
2018-05-11T15:01:26.176Z,38.21
2018-05-11T15:02:26.189Z,38.51
2018-05-11T15:04:19.104Z,37.17
2018-05-11T15:05:19.131Z,37.56
2018-05-11T15:07:12.070Z,36.01
2018-05-11T15:08:12.078Z,36.59
2018-05-11T15:10:05.021Z,35.92
2018-05-11T15:11:05.018Z,36.11
2018-05-11T15:12:57.953Z,36.11
2018-05-11T15:13:57.968Z,36.01
2018-05-11T15:15:50.911Z,36.11
2018-05-11T15:16:50.911Z,35.72
2018-05-11T15:18:43.826Z,35.82
2018-05-11T15:19:43.856Z,36.01
2018-05-11T15:21:36.791Z,36.01
2018-05-11T15:22:36.827Z,36.30
2018-05-11T15:24:29.722Z,36.29
2018-05-11T15:25:29.749Z,37.54
2018-05-11T15:27:22.690Z,36.67
2018-05-11T15:28:22.697Z,36.40
2018-05-11T15:30:15.618Z,36.59
2018-05-11T15:31:15.741Z,36.21
2018-05-11T15:33:08.583Z,35.92
2018-05-11T15:34:08.593Z,36.50
2018-05-11T15:36:01.543Z,38.23
2018-05-11T15:37:01.541Z,37.38
2018-05-11T15:38:54.461Z,35.14
2018-05-11T15:39:54.489Z,35.53
2018-05-11T15:41:47.436Z,36.22
2018-05-11T15:42:47.439Z,37.10
2018-05-11T15:44:40.362Z,35.64
2018-05-11T15:45:40.405Z,36.22
2018-05-11T15:47:33.325Z,36.03
2018-05-11T15:48:33.335Z,36.13
2018-05-11T15:50:26.252Z,36.22
2018-05-11T15:51:26.280Z,36.32
2018-05-11T15:53:19.216Z,36.30
2018-05-11T15:54:19.228Z,36.03
2018-05-11T15:56:12.164Z,36.21
2018-05-11T15:57:12.173Z,36.30
2018-05-11T15:59:05.206Z,36.01
2018-05-11T16:00:05.158Z,36.11
2018-05-11T16:01:58.086Z,35.82
2018-05-11T16:02:58.095Z,36.21
2018-05-11T16:04:51.013Z,35.92
2018-05-11T16:05:51.110Z,36.40
2018-05-11T16:07:43.976Z,37.27
2018-05-11T16:08:43.988Z,36.01
2018-05-11T16:10:36.901Z,36.21
2018-05-11T16:11:36.933Z,36.30
2018-05-11T16:13:29.876Z,35.63
2018-05-11T16:14:29.905Z,36.11
2018-05-11T16:16:22.792Z,35.44
2018-05-11T16:17:22.825Z,34.39
2018-05-11T16:19:15.758Z,34.20
2018-05-11T16:20:15.780Z,33.63
2018-05-11T16:22:08.721Z,34.50
2018-05-11T16:23:08.840Z,34.02
2018-05-11T16:25:01.679Z,32.57
2018-05-11T16:26:01.689Z,32.97
2018-05-11T16:27:54.624Z,33.17
2018-05-11T16:28:54.646Z,33.25
2018-05-11T16:30:47.558Z,34.12
2018-05-11T16:31:47.582Z,34.81
2018-05-11T16:33:40.521Z,34.02
2018-05-11T16:34:40.531Z,33.84
2018-05-11T16:36:33.449Z,34.13
2018-05-11T16:37:33.479Z,34.81
2018-05-11T16:39:26.421Z,34.91
2018-05-11T16:40:26.441Z,35.29
2018-05-11T16:42:19.367Z,35.76
2018-05-11T16:43:19.376Z,36.36
2018-05-11T16:45:12.297Z,36.34
2018-05-11T16:46:12.326Z,35.95
2018-05-11T16:48:05.365Z,37.02
2018-05-11T16:49:05.274Z,35.84
2018-05-11T16:50:58.196Z,36.52
2018-05-11T16:51:58.230Z,36.71
2018-05-11T16:53:51.160Z,36.13
2018-05-11T16:54:51.176Z,36.32
2018-05-11T16:56:44.089Z,37.00
2018-05-11T16:57:44.119Z,35.94
2018-05-11T16:59:37.053Z,35.94
2018-05-11T17:00:37.065Z,37.00
2018-05-11T17:02:29.998Z,35.82
2018-05-11T17:03:30.062Z,36.88
2018-05-11T17:05:22.966Z,37.56
2018-05-11T17:06:22.992Z,37.25
2018-05-11T17:08:16.002Z,38.43
2018-05-11T17:09:15.937Z,37.75
2018-05-11T17:11:08.849Z,36.96
2018-05-11T17:12:08.886Z,37.45
2018-05-11T17:14:01.838Z,38.31
2018-05-11T17:15:01.824Z,38.21
2018-05-11T17:16:54.740Z,38.99
2018-05-11T17:17:54.768Z,38.70
2018-05-11T17:19:47.700Z,38.58
2018-05-11T17:20:47.721Z,38.20
2018-05-11T17:22:40.765Z,39.06
2018-05-11T17:23:40.677Z,39.09
2018-05-11T17:25:33.587Z,38.99
2018-05-11T17:26:33.616Z,38.31
2018-05-11T17:28:26.549Z,38.12
2018-05-11T17:29:26.558Z,37.73
2018-05-11T17:31:19.475Z,37.63
2018-05-11T17:32:19.505Z,38.02
2018-05-11T17:34:12.437Z,38.31
2018-05-11T17:35:12.449Z,38.21
2018-05-11T17:37:05.362Z,38.51
2018-05-11T17:38:05.393Z,38.01
2018-05-11T17:39:58.327Z,38.29
2018-05-11T17:40:58.338Z,37.91
2018-05-11T17:42:51.269Z,38.78
2018-05-11T17:43:51.282Z,39.26
2018-05-11T17:45:44.193Z,39.45
2018-05-11T17:46:44.226Z,40.39
2018-05-11T17:48:37.187Z,40.42
2018-05-11T17:49:37.169Z,40.22
2018-05-11T17:51:30.080Z,40.51
2018-05-11T17:52:30.112Z,40.99
2018-05-11T17:54:23.041Z,41.55
2018-05-11T17:55:23.049Z,41.94
2018-05-11T17:57:15.969Z,42.90
2018-05-11T17:58:15.997Z,43.19
2018-05-11T18:00:08.935Z,43.58
2018-05-11T18:01:08.938Z,43.67
2018-05-11T18:03:01.872Z,43.46
2018-05-11T18:04:01.918Z,43.65
2018-05-11T18:05:54.794Z,44.23
2018-05-11T18:06:54.824Z,44.23
2018-05-11T18:08:47.758Z,45.10
2018-05-11T18:09:47.767Z,45.20
2018-05-11T18:11:40.676Z,44.81
2018-05-11T18:12:40.700Z,45.56
2018-05-11T18:14:33.635Z,45.10
2018-05-11T18:15:33.646Z,45.17
2018-05-11T18:17:26.555Z,44.89
2018-05-11T18:18:26.580Z,44.90
2018-05-11T18:20:19.511Z,45.46
2018-05-11T18:21:19.642Z,45.75
2018-05-11T18:23:12.452Z,45.65
2018-05-11T18:24:12.465Z,46.04
2018-05-11T18:26:05.376Z,46.14
2018-05-11T18:27:05.404Z,45.84
2018-05-11T18:28:58.333Z,45.84
2018-05-11T18:29:58.345Z,46.81
2018-05-11T18:31:51.255Z,46.81
2018-05-11T18:32:51.290Z,46.62